sensor_id;sensor_type;location;lat;lon;timestamp;temperature;humidity
40816;DHT22;26535;48.788;9.214;2023-03-21T00:00:55;10.60;99.90
40816;DHT22;26535;48.788;9.214;2023-03-21T00:03:22;10.60;99.90
40816;DHT22;26535;48.788;9.214;2023-03-21T00:05:47;10.60;99.90
40816;DHT22;26535;48.788;9.214;2023-03-21T00:08:16;10.60;99.90
40816;DHT22;26535;48.788;9.214;2023-03-21T00:10:42;10.60;99.90
40816;DHT22;26535;48.788;9.214;2023-03-21T00:13:08;10.50;99.90
40816;DHT22;26535;48.788;9.214;2023-03-21T00:15:33;10.60;99.90
40816;DHT22;26535;48.788;9.214;2023-03-21T00:18:03;10.60;99.90
40816;DHT22;26535;48.788;9.214;2023-03-21T00:20:35;10.60;99.90
40816;DHT22;26535;48.788;9.214;2023-03-21T00:23:03;10.70;99.90
40816;DHT22;26535;48.788;9.214;2023-03-21T00:25:29;10.70;99.90
40816;DHT22;26535;48.788;9.214;2023-03-21T00:27:57;10.80;99.90
40816;DHT22;26535;48.788;9.214;2023-03-21T00:30:22;10.80;99.90
40816;DHT22;26535;48.788;9.214;2023-03-21T00:32:48;10.80;99.90
40816;DHT22;26535;48.788;9.214;2023-03-21T00:35:15;10.80;99.90
40816;DHT22;26535;48.788;9.214;2023-03-21T00:37:40;10.80;99.90
40816;DHT22;26535;48.788;9.214;2023-03-21T00:40:09;10.80;99.90
40816;DHT22;26535;48.788;9.214;2023-03-21T00:42:35;10.70;99.90
40816;DHT22;26535;48.788;9.214;2023-03-21T00:45:03;10.80;99.90
40816;DHT22;26535;48.788;9.214;2023-03-21T00:47:31;10.80;99.90
40816;DHT22;26535;48.788;9.214;2023-03-21T00:49:56;10.70;99.90
40816;DHT22;26535;48.788;9.214;2023-03-21T00:52:22;10.70;99.90
40816;DHT22;26535;48.788;9.214;2023-03-21T00:54:50;10.70;99.90
40816;DHT22;26535;48.788;9.214;2023-03-21T00:57:16;10.60;99.90
40816;DHT22;26535;48.788;9.214;2023-03-21T00:59:43;10.60;99.90
40816;DHT22;26535;48.788;9.214;2023-03-21T06:03:43;9.40;99.90
40816;DHT22;26535;48.788;9.214;2023-03-21T06:06:14;9.40;99.90
40816;DHT22;26535;48.788;9.214;2023-03-21T06:08:50;9.50;99.90
40816;DHT22;26535;48.788;9.214;2023-03-21T06:11:30;9.60;99.90
40816;DHT22;26535;48.788;9.214;2023-03-21T06:14:15;9.70;99.90
40816;DHT22;26535;48.788;9.214;2023-03-21T06:16:42;9.60;99.90
40816;DHT22;26535;48.788;9.214;2023-03-21T06:19:08;9.60;99.90
40816;DHT22;26535;48.788;9.214;2023-03-21T06:21:59;9.70;99.90
40816;DHT22;26535;48.788;9.214;2023-03-21T06:24:26;9.70;99.90
40816;DHT22;26535;48.788;9.214;2023-03-21T06:26:52;9.70;99.90
40816;DHT22;26535;48.788;9.214;2023-03-21T06:29:18;9.70;99.90
40816;DHT22;26535;48.788;9.214;2023-03-21T06:31:47;9.60;99.90
40816;DHT22;26535;48.788;9.214;2023-03-21T06:34:14;9.60;99.90
40816;DHT22;26535;48.788;9.214;2023-03-21T06:36:39;9.60;99.90
40816;DHT22;26535;48.788;9.214;2023-03-21T06:39:05;9.60;99.90
40816;DHT22;26535;48.788;9.214;2023-03-21T06:41:36;9.60;99.90
40816;DHT22;26535;48.788;9.214;2023-03-21T06:44:03;9.60;99.90
40816;DHT22;26535;48.788;9.214;2023-03-21T06:46:34;9.50;99.90
40816;DHT22;26535;48.788;9.214;2023-03-21T06:49:00;9.60;99.90
40816;DHT22;26535;48.788;9.214;2023-03-21T06:51:28;9.60;99.90
40816;DHT22;26535;48.788;9.214;2023-03-21T06:54:04;9.50;99.90
40816;DHT22;26535;48.788;9.214;2023-03-21T06:56:38;9.50;99.90
40816;DHT22;26535;48.788;9.214;2023-03-21T06:59:03;9.60;99.90
40816;DHT22;26535;48.788;9.214;2023-03-21T07:01:46;9.60;99.90
40816;DHT22;26535;48.788;9.214;2023-03-21T07:04:12;9.50;99.90
40816;DHT22;26535;48.788;9.214;2023-03-21T07:06:38;9.50;99.90
40816;DHT22;26535;48.788;9.214;2023-03-21T07:09:04;9.60;99.90
40816;DHT22;26535;48.788;9.214;2023-03-21T07:11:32;9.70;99.90
40816;DHT22;26535;48.788;9.214;2023-03-21T07:14:00;9.70;99.90
40816;DHT22;26535;48.788;9.214;2023-03-21T07:16:26;9.80;99.90
40816;DHT22;26535;48.788;9.214;2023-03-21T07:18:52;9.90;99.90
40816;DHT22;26535;48.788;9.214;2023-03-21T07:21:17;10.10;99.90
40816;DHT22;26535;48.788;9.214;2023-03-21T07:23:43;10.30;99.90
40816;DHT22;26535;48.788;9.214;2023-03-21T07:26:09;10.40;99.90
40816;DHT22;26535;48.788;9.214;2023-03-21T07:28:35;10.50;99.90
40816;DHT22;26535;48.788;9.214;2023-03-21T07:31:04;10.60;99.90
40816;DHT22;26535;48.788;9.214;2023-03-21T07:33:32;10.60;99.90
40816;DHT22;26535;48.788;9.214;2023-03-21T07:35:59;10.60;99.90
40816;DHT22;26535;48.788;9.214;2023-03-21T07:38:26;10.60;99.90
40816;DHT22;26535;48.788;9.214;2023-03-21T07:40:52;10.70;99.90
40816;DHT22;26535;48.788;9.214;2023-03-21T07:43:19;10.80;99.90
40816;DHT22;26535;48.788;9.214;2023-03-21T07:45:45;10.80;99.90
40816;DHT22;26535;48.788;9.214;2023-03-21T07:48:13;11.00;99.90
40816;DHT22;26535;48.788;9.214;2023-03-21T07:50:39;11.20;99.90
40816;DHT22;26535;48.788;9.214;2023-03-21T07:53:06;11.30;99.90
40816;DHT22;26535;48.788;9.214;2023-03-21T07:55:32;11.50;99.90
40816;DHT22;26535;48.788;9.214;2023-03-21T07:58:01;11.60;99.90
40816;DHT22;26535;48.788;9.214;2023-03-21T08:00:27;11.80;99.90
40816;DHT22;26535;48.788;9.214;2023-03-21T08:02:54;12.00;99.90
40816;DHT22;26535;48.788;9.214;2023-03-21T08:05:22;12.10;99.90
40816;DHT22;26535;48.788;9.214;2023-03-21T08:07:49;12.30;99.90
40816;DHT22;26535;48.788;9.214;2023-03-21T08:10:15;12.30;99.90
40816;DHT22;26535;48.788;9.214;2023-03-21T08:12:41;12.30;99.90
40816;DHT22;26535;48.788;9.214;2023-03-21T08:15:07;12.30;99.90
40816;DHT22;26535;48.788;9.214;2023-03-21T08:17:33;12.40;99.90
40816;DHT22;26535;48.788;9.214;2023-03-21T08:20:04;12.50;99.90
40816;DHT22;26535;48.788;9.214;2023-03-21T08:22:32;12.60;99.90
40816;DHT22;26535;48.788;9.214;2023-03-21T08:24:58;12.70;99.90
40816;DHT22;26535;48.788;9.214;2023-03-21T08:27:24;12.70;99.90
40816;DHT22;26535;48.788;9.214;2023-03-21T08:29:50;12.80;99.90
40816;DHT22;26535;48.788;9.214;2023-03-21T08:32:17;13.00;99.90
40816;DHT22;26535;48.788;9.214;2023-03-21T08:34:43;13.10;99.40
40816;DHT22;26535;48.788;9.214;2023-03-21T08:37:10;13.20;99.40
40816;DHT22;26535;48.788;9.214;2023-03-21T08:39:35;13.20;98.80
40816;DHT22;26535;48.788;9.214;2023-03-21T08:42:01;13.40;98.60
40816;DHT22;26535;48.788;9.214;2023-03-21T08:44:27;13.50;98.20
40816;DHT22;26535;48.788;9.214;2023-03-21T08:46:52;13.70;98.10
40816;DHT22;26535;48.788;9.214;2023-03-21T08:49:18;13.90;97.50
40816;DHT22;26535;48.788;9.214;2023-03-21T08:51:44;14.00;97.30
40816;DHT22;26535;48.788;9.214;2023-03-21T08:54:18;14.20;97.00
40816;DHT22;26535;48.788;9.214;2023-03-21T08:56:44;14.30;96.50
40816;DHT22;26535;48.788;9.214;2023-03-21T08:59:10;14.40;95.90
40816;DHT22;26535;48.788;9.214;2023-03-21T09:01:36;14.60;95.30
40816;DHT22;26535;48.788;9.214;2023-03-21T09:04:02;14.50;94.90
40816;DHT22;26535;48.788;9.214;2023-03-21T09:06:28;14.60;94.60
40816;DHT22;26535;48.788;9.214;2023-03-21T09:08:55;14.60;94.90
40816;DHT22;26535;48.788;9.214;2023-03-21T09:11:21;14.80;94.10
40816;DHT22;26535;48.788;9.214;2023-03-21T09:13:47;14.90;93.90
40816;DHT22;26535;48.788;9.214;2023-03-21T09:16:13;15.00;93.50
40816;DHT22;26535;48.788;9.214;2023-03-21T09:18:39;15.10;93.50
40816;DHT22;26535;48.788;9.214;2023-03-21T09:21:14;15.20;93.40
40816;DHT22;26535;48.788;9.214;2023-03-21T09:23:41;15.30;92.90
40816;DHT22;26535;48.788;9.214;2023-03-21T09:26:08;15.40;92.50
40816;DHT22;26535;48.788;9.214;2023-03-21T09:28:35;15.50;92.30
40816;DHT22;26535;48.788;9.214;2023-03-21T09:31:03;15.50;91.70
40816;DHT22;26535;48.788;9.214;2023-03-21T09:33:30;15.50;91.70
40816;DHT22;26535;48.788;9.214;2023-03-21T09:35:55;15.70;91.90
40816;DHT22;26535;48.788;9.214;2023-03-21T09:38:25;16.00;91.50
40816;DHT22;26535;48.788;9.214;2023-03-21T09:43:57;16.20;89.30
40816;DHT22;26535;48.788;9.214;2023-03-21T09:49:30;16.40;89.40
40816;DHT22;26535;48.788;9.214;2023-03-21T09:52:02;16.50;87.90
40816;DHT22;26535;48.788;9.214;2023-03-21T09:54:41;16.70;87.30
40816;DHT22;26535;48.788;9.214;2023-03-21T09:59:53;17.20;85.70
40816;DHT22;26535;48.788;9.214;2023-03-21T10:02:37;17.50;84.50
40816;DHT22;26535;48.788;9.214;2023-03-21T10:07:47;18.00;83.90
40816;DHT22;26535;48.788;9.214;2023-03-21T10:10:19;18.10;82.20
40816;DHT22;26535;48.788;9.214;2023-03-21T10:12:46;18.50;80.50
40816;DHT22;26535;48.788;9.214;2023-03-21T10:15:21;18.80;79.90
40816;DHT22;26535;48.788;9.214;2023-03-21T10:18:00;18.90;79.40
40816;DHT22;26535;48.788;9.214;2023-03-21T10:20:35;19.10;79.90
40816;DHT22;26535;48.788;9.214;2023-03-21T10:23:07;19.20;77.80
40816;DHT22;26535;48.788;9.214;2023-03-21T10:25:40;19.10;78.30
40816;DHT22;26535;48.788;9.214;2023-03-21T10:28:10;19.30;78.60
40816;DHT22;26535;48.788;9.214;2023-03-21T10:30:53;19.20;77.30
40816;DHT22;26535;48.788;9.214;2023-03-21T10:33:43;19.20;77.50
40816;DHT22;26535;48.788;9.214;2023-03-21T10:36:14;19.20;77.70
40816;DHT22;26535;48.788;9.214;2023-03-21T10:38:49;19.20;76.10
40816;DHT22;26535;48.788;9.214;2023-03-21T10:41:15;19.40;77.30
40816;DHT22;26535;48.788;9.214;2023-03-21T10:43:42;19.30;76.50
40816;DHT22;26535;48.788;9.214;2023-03-21T10:46:16;19.60;77.00
40816;DHT22;26535;48.788;9.214;2023-03-21T10:48:43;19.90;76.50
40816;DHT22;26535;48.788;9.214;2023-03-21T10:51:18;20.10;75.50
40816;DHT22;26535;48.788;9.214;2023-03-21T10:53:51;20.30;74.20
40816;DHT22;26535;48.788;9.214;2023-03-21T10:56:29;20.30;73.60
40816;DHT22;26535;48.788;9.214;2023-03-21T10:58:58;20.50;73.50
40816;DHT22;26535;48.788;9.214;2023-03-21T11:01:39;20.50;72.60
40816;DHT22;26535;48.788;9.214;2023-03-21T11:04:09;20.30;72.30
40816;DHT22;26535;48.788;9.214;2023-03-21T11:06:40;20.60;72.30
40816;DHT22;26535;48.788;9.214;2023-03-21T11:09:13;20.90;72.20
40816;DHT22;26535;48.788;9.214;2023-03-21T11:11:51;21.00;71.10
40816;DHT22;26535;48.788;9.214;2023-03-21T11:14:30;21.00;70.00
40816;DHT22;26535;48.788;9.214;2023-03-21T11:16:57;20.70;71.40
40816;DHT22;26535;48.788;9.214;2023-03-21T11:19:30;20.70;70.60
40816;DHT22;26535;48.788;9.214;2023-03-21T11:21:58;20.30;69.00
40816;DHT22;26535;48.788;9.214;2023-03-21T11:24:27;20.50;67.90
40816;DHT22;26535;48.788;9.214;2023-03-21T11:26:55;20.50;69.60
40816;DHT22;26535;48.788;9.214;2023-03-21T11:29:38;20.60;69.60
40816;DHT22;26535;48.788;9.214;2023-03-21T11:32:21;21.10;69.30
40816;DHT22;26535;48.788;9.214;2023-03-21T11:35:00;21.00;69.40
40816;DHT22;26535;48.788;9.214;2023-03-21T11:40:22;20.70;70.20
40816;DHT22;26535;48.788;9.214;2023-03-21T11:42:53;21.00;70.00
40816;DHT22;26535;48.788;9.214;2023-03-21T11:45:20;21.10;69.00
40816;DHT22;26535;48.788;9.214;2023-03-21T11:47:47;21.10;68.80
40816;DHT22;26535;48.788;9.214;2023-03-21T11:50:35;21.20;69.40
40816;DHT22;26535;48.788;9.214;2023-03-21T11:55:49;20.50;68.80
40816;DHT22;26535;48.788;9.214;2023-03-21T12:00:59;20.20;68.50
40816;DHT22;26535;48.788;9.214;2023-03-21T12:09:56;20.50;68.80
40816;DHT22;26535;48.788;9.214;2023-03-21T12:12:43;20.60;68.90
40816;DHT22;26535;48.788;9.214;2023-03-21T12:15:23;20.50;69.50
40816;DHT22;26535;48.788;9.214;2023-03-21T12:46:42;19.90;71.00
40816;DHT22;26535;48.788;9.214;2023-03-21T12:51:46;20.30;70.70
40816;DHT22;26535;48.788;9.214;2023-03-21T12:59:40;20.80;69.30
40816;DHT22;26535;48.788;9.214;2023-03-21T13:02:30;21.20;68.50
40816;DHT22;26535;48.788;9.214;2023-03-21T13:07:44;21.70;66.70
40816;DHT22;26535;48.788;9.214;2023-03-21T13:10:14;22.20;66.50
40816;DHT22;26535;48.788;9.214;2023-03-21T13:12:54;22.60;65.80
40816;DHT22;26535;48.788;9.214;2023-03-21T13:15:33;23.30;65.30
40816;DHT22;26535;48.788;9.214;2023-03-21T13:19:00;23.10;63.90
40816;DHT22;26535;48.788;9.214;2023-03-21T13:21:17;23.10;64.50
40816;DHT22;26535;48.788;9.214;2023-03-21T13:26:47;22.50;65.10
40816;DHT22;26535;48.788;9.214;2023-03-21T13:29:32;22.30;65.40
40816;DHT22;26535;48.788;9.214;2023-03-21T13:32:07;22.10;66.70
40816;DHT22;26535;48.788;9.214;2023-03-21T13:34:34;21.90;66.20
40816;DHT22;26535;48.788;9.214;2023-03-21T13:37:00;21.90;66.60
40816;DHT22;26535;48.788;9.214;2023-03-21T13:39:27;21.70;65.90
40816;DHT22;26535;48.788;9.214;2023-03-21T13:41:54;21.70;66.40
40816;DHT22;26535;48.788;9.214;2023-03-21T13:44:38;21.50;66.00
40816;DHT22;26535;48.788;9.214;2023-03-21T13:47:22;21.40;66.00
40816;DHT22;26535;48.788;9.214;2023-03-21T13:53:17;21.00;67.00
40816;DHT22;26535;48.788;9.214;2023-03-21T13:55:46;20.80;66.70
40816;DHT22;26535;48.788;9.214;2023-03-21T13:58:49;20.80;67.10
40816;DHT22;26535;48.788;9.214;2023-03-21T14:04:04;20.50;69.30
40816;DHT22;26535;48.788;9.214;2023-03-21T14:06:54;20.30;68.50
40816;DHT22;26535;48.788;9.214;2023-03-21T14:09:28;20.20;69.70
40816;DHT22;26535;48.788;9.214;2023-03-21T14:11:55;20.00;69.80
40816;DHT22;26535;48.788;9.214;2023-03-21T14:14:25;20.00;70.10
40816;DHT22;26535;48.788;9.214;2023-03-21T14:16:52;20.00;69.80
40816;DHT22;26535;48.788;9.214;2023-03-21T14:19:18;19.90;70.50
40816;DHT22;26535;48.788;9.214;2023-03-21T14:21:49;20.00;70.00
40816;DHT22;26535;48.788;9.214;2023-03-21T14:24:18;20.00;70.20
40816;DHT22;26535;48.788;9.214;2023-03-21T14:26:49;19.90;69.90
40816;DHT22;26535;48.788;9.214;2023-03-21T14:29:28;19.90;69.70
40816;DHT22;26535;48.788;9.214;2023-03-21T14:31:56;19.90;69.50
40816;DHT22;26535;48.788;9.214;2023-03-21T14:34:22;20.20;70.00
40816;DHT22;26535;48.788;9.214;2023-03-21T14:36:50;20.40;70.10
40816;DHT22;26535;48.788;9.214;2023-03-21T14:39:21;20.60;69.60
40816;DHT22;26535;48.788;9.214;2023-03-21T14:41:55;20.60;68.90
40816;DHT22;26535;48.788;9.214;2023-03-21T14:44:36;20.40;68.90
40816;DHT22;26535;48.788;9.214;2023-03-21T14:47:26;20.40;69.50
40816;DHT22;26535;48.788;9.214;2023-03-21T14:49:53;20.50;68.60
40816;DHT22;26535;48.788;9.214;2023-03-21T14:52:25;20.70;69.10
40816;DHT22;26535;48.788;9.214;2023-03-21T14:54:52;20.70;69.00
40816;DHT22;26535;48.788;9.214;2023-03-21T14:57:22;20.90;67.90
40816;DHT22;26535;48.788;9.214;2023-03-21T14:59:51;21.10;67.70
40816;DHT22;26535;48.788;9.214;2023-03-21T15:02:27;21.10;67.00
40816;DHT22;26535;48.788;9.214;2023-03-21T15:04:57;21.10;67.70
40816;DHT22;26535;48.788;9.214;2023-03-21T15:07:28;21.40;67.10
40816;DHT22;26535;48.788;9.214;2023-03-21T15:09:56;21.40;67.10
40816;DHT22;26535;48.788;9.214;2023-03-21T15:12:22;21.40;67.20
40816;DHT22;26535;48.788;9.214;2023-03-21T15:14:49;21.30;67.00
40816;DHT22;26535;48.788;9.214;2023-03-21T15:17:15;21.40;66.50
40816;DHT22;26535;48.788;9.214;2023-03-21T15:19:41;21.70;66.20
40816;DHT22;26535;48.788;9.214;2023-03-21T15:24:48;22.20;65.30
40816;DHT22;26535;48.788;9.214;2023-03-21T15:27:17;22.30;64.90
40816;DHT22;26535;48.788;9.214;2023-03-21T15:29:43;22.40;64.20
40816;DHT22;26535;48.788;9.214;2023-03-21T15:32:19;22.60;63.70
40816;DHT22;26535;48.788;9.214;2023-03-21T15:34:48;22.90;63.50
40816;DHT22;26535;48.788;9.214;2023-03-21T15:37:25;23.00;63.40
40816;DHT22;26535;48.788;9.214;2023-03-21T15:39:52;22.40;63.70
40816;DHT22;26535;48.788;9.214;2023-03-21T15:42:38;21.90;66.10
40816;DHT22;26535;48.788;9.214;2023-03-21T15:45:25;21.70;66.00
40816;DHT22;26535;48.788;9.214;2023-03-21T15:47:54;21.60;66.60
40816;DHT22;26535;48.788;9.214;2023-03-21T15:50:24;21.00;67.30
40816;DHT22;26535;48.788;9.214;2023-03-21T15:52:52;20.50;68.70
40816;DHT22;26535;48.788;9.214;2023-03-21T15:55:23;20.00;69.90
40816;DHT22;26535;48.788;9.214;2023-03-21T15:57:52;19.50;71.00
40816;DHT22;26535;48.788;9.214;2023-03-21T16:00:38;19.20;72.20
40816;DHT22;26535;48.788;9.214;2023-03-21T16:03:13;18.80;73.40
40816;DHT22;26535;48.788;9.214;2023-03-21T16:05:41;18.60;74.40
40816;DHT22;26535;48.788;9.214;2023-03-21T16:08:21;18.30;75.10
40816;DHT22;26535;48.788;9.214;2023-03-21T16:10:50;18.10;75.50
40816;DHT22;26535;48.788;9.214;2023-03-21T16:13:16;18.00;76.10
40816;DHT22;26535;48.788;9.214;2023-03-21T16:15:42;17.90;76.50
40816;DHT22;26535;48.788;9.214;2023-03-21T16:18:13;17.80;77.00
40816;DHT22;26535;48.788;9.214;2023-03-21T16:20:42;17.70;77.90
40816;DHT22;26535;48.788;9.214;2023-03-21T16:23:13;17.60;78.00
40816;DHT22;26535;48.788;9.214;2023-03-21T16:25:41;17.40;78.20
40816;DHT22;26535;48.788;9.214;2023-03-21T16:28:15;17.30;78.80
40816;DHT22;26535;48.788;9.214;2023-03-21T16:30:42;17.10;79.50
40816;DHT22;26535;48.788;9.214;2023-03-21T16:33:11;17.00;80.90
40816;DHT22;26535;48.788;9.214;2023-03-21T16:35:38;16.90;80.20
40816;DHT22;26535;48.788;9.214;2023-03-21T16:38:04;16.80;80.60
40816;DHT22;26535;48.788;9.214;2023-03-21T16:40:33;16.70;80.70
40816;DHT22;26535;48.788;9.214;2023-03-21T16:42:59;16.70;82.20
40816;DHT22;26535;48.788;9.214;2023-03-21T16:45:25;16.50;81.40
40816;DHT22;26535;48.788;9.214;2023-03-21T16:47:53;16.40;82.40
40816;DHT22;26535;48.788;9.214;2023-03-21T16:50:31;16.40;82.70
40816;DHT22;26535;48.788;9.214;2023-03-21T16:52:58;16.30;82.40
40816;DHT22;26535;48.788;9.214;2023-03-21T16:55:24;16.20;82.70
40816;DHT22;26535;48.788;9.214;2023-03-21T16:57:50;16.00;83.00
40816;DHT22;26535;48.788;9.214;2023-03-21T17:00:21;16.00;83.90
40816;DHT22;26535;48.788;9.214;2023-03-21T17:02:51;15.90;84.30
40816;DHT22;26535;48.788;9.214;2023-03-21T17:05:23;15.90;84.10
40816;DHT22;26535;48.788;9.214;2023-03-21T17:07:53;15.80;84.40
40816;DHT22;26535;48.788;9.214;2023-03-21T17:10:25;15.70;84.50
40816;DHT22;26535;48.788;9.214;2023-03-21T17:12:51;15.60;84.60
40816;DHT22;26535;48.788;9.214;2023-03-21T17:15:17;15.50;84.80
40816;DHT22;26535;48.788;9.214;2023-03-21T17:17:44;15.40;85.10
40816;DHT22;26535;48.788;9.214;2023-03-21T17:20:29;15.30;85.60
40816;DHT22;26535;48.788;9.214;2023-03-21T17:22:56;15.30;85.80
40816;DHT22;26535;48.788;9.214;2023-03-21T17:25:22;15.30;86.50
40816;DHT22;26535;48.788;9.214;2023-03-21T17:27:48;15.30;86.50
40816;DHT22;26535;48.788;9.214;2023-03-21T17:32:47;15.10;87.20
40816;DHT22;26535;48.788;9.214;2023-03-21T17:35:14;15.00;87.60
40816;DHT22;26535;48.788;9.214;2023-03-21T17:37:39;15.00;88.60
40816;DHT22;26535;48.788;9.214;2023-03-21T17:40:10;14.90;89.40
40816;DHT22;26535;48.788;9.214;2023-03-21T17:42:37;14.90;89.20
40816;DHT22;26535;48.788;9.214;2023-03-21T17:45:04;14.80;90.00
40816;DHT22;26535;48.788;9.214;2023-03-21T17:47:30;14.80;89.50
40816;DHT22;26535;48.788;9.214;2023-03-21T17:49:57;14.80;89.20
40816;DHT22;26535;48.788;9.214;2023-03-21T17:52:22;14.80;89.70
40816;DHT22;26535;48.788;9.214;2023-03-21T17:54:48;14.80;89.30
40816;DHT22;26535;48.788;9.214;2023-03-21T17:57:14;14.70;89.00
40816;DHT22;26535;48.788;9.214;2023-03-21T17:59:40;14.70;89.50
40816;DHT22;26535;48.788;9.214;2023-03-21T18:02:06;14.70;89.70
40816;DHT22;26535;48.788;9.214;2023-03-21T18:04:31;14.70;90.50
40816;DHT22;26535;48.788;9.214;2023-03-21T18:06:57;14.70;89.90
40816;DHT22;26535;48.788;9.214;2023-03-21T18:09:25;14.70;90.10
40816;DHT22;26535;48.788;9.214;2023-03-21T18:11:51;14.70;90.30
40816;DHT22;26535;48.788;9.214;2023-03-21T18:14:16;14.60;90.20
40816;DHT22;26535;48.788;9.214;2023-03-21T18:16:45;14.60;90.20
40816;DHT22;26535;48.788;9.214;2023-03-21T18:19:11;14.60;90.20
40816;DHT22;26535;48.788;9.214;2023-03-21T18:21:38;14.60;90.60
40816;DHT22;26535;48.788;9.214;2023-03-21T18:24:05;14.60;90.40
40816;DHT22;26535;48.788;9.214;2023-03-21T18:26:31;14.60;90.90
40816;DHT22;26535;48.788;9.214;2023-03-21T18:28:57;14.60;90.40
40816;DHT22;26535;48.788;9.214;2023-03-21T18:31:23;14.50;91.00
40816;DHT22;26535;48.788;9.214;2023-03-21T18:33:49;14.60;90.50
40816;DHT22;26535;48.788;9.214;2023-03-21T18:36:20;14.60;90.50
40816;DHT22;26535;48.788;9.214;2023-03-21T18:38:46;14.50;90.70
40816;DHT22;26535;48.788;9.214;2023-03-21T18:41:13;14.50;90.80
40816;DHT22;26535;48.788;9.214;2023-03-21T18:43:40;14.40;90.90
40816;DHT22;26535;48.788;9.214;2023-03-21T18:46:07;14.40;90.80
40816;DHT22;26535;48.788;9.214;2023-03-21T18:48:33;14.30;91.00
40816;DHT22;26535;48.788;9.214;2023-03-21T18:50:59;14.30;91.10
40816;DHT22;26535;48.788;9.214;2023-03-21T18:53:25;14.20;91.20
40816;DHT22;26535;48.788;9.214;2023-03-21T18:55:51;14.20;91.30
40816;DHT22;26535;48.788;9.214;2023-03-21T18:58:17;14.20;92.00
40816;DHT22;26535;48.788;9.214;2023-03-21T19:00:43;14.20;91.60
40816;DHT22;26535;48.788;9.214;2023-03-21T19:03:09;14.30;91.60
40816;DHT22;26535;48.788;9.214;2023-03-21T19:05:36;14.30;91.70
40816;DHT22;26535;48.788;9.214;2023-03-21T19:08:04;14.30;91.10
40816;DHT22;26535;48.788;9.214;2023-03-21T19:10:31;14.20;91.10
40816;DHT22;26535;48.788;9.214;2023-03-21T19:12:57;14.20;91.40
40816;DHT22;26535;48.788;9.214;2023-03-21T19:15:22;14.10;91.50
40816;DHT22;26535;48.788;9.214;2023-03-21T19:17:50;14.10;91.40
40816;DHT22;26535;48.788;9.214;2023-03-21T19:20:17;14.10;91.60
40816;DHT22;26535;48.788;9.214;2023-03-21T19:22:43;14.10;91.80
40816;DHT22;26535;48.788;9.214;2023-03-21T19:25:10;14.10;91.90
40816;DHT22;26535;48.788;9.214;2023-03-21T19:27:37;14.00;91.90
40816;DHT22;26535;48.788;9.214;2023-03-21T19:30:08;14.00;91.90
40816;DHT22;26535;48.788;9.214;2023-03-21T19:32:35;13.90;92.10
40816;DHT22;26535;48.788;9.214;2023-03-21T19:35:01;13.90;92.10
40816;DHT22;26535;48.788;9.214;2023-03-21T19:37:27;13.80;92.00
40816;DHT22;26535;48.788;9.214;2023-03-21T19:39:53;13.80;91.90
40816;DHT22;26535;48.788;9.214;2023-03-21T19:42:19;13.80;92.00
40816;DHT22;26535;48.788;9.214;2023-03-21T19:44:45;13.80;92.10
40816;DHT22;26535;48.788;9.214;2023-03-21T19:47:11;13.70;92.10
40816;DHT22;26535;48.788;9.214;2023-03-21T19:49:37;13.70;92.10
40816;DHT22;26535;48.788;9.214;2023-03-21T19:52:08;13.70;92.20
40816;DHT22;26535;48.788;9.214;2023-03-21T19:54:35;13.80;92.30
40816;DHT22;26535;48.788;9.214;2023-03-21T19:57:01;13.70;92.50
40816;DHT22;26535;48.788;9.214;2023-03-21T19:59:27;13.70;92.80
40816;DHT22;26535;48.788;9.214;2023-03-21T20:01:53;13.80;92.70
40816;DHT22;26535;48.788;9.214;2023-03-21T20:04:18;13.70;93.00
40816;DHT22;26535;48.788;9.214;2023-03-21T20:06:44;13.70;93.00
40816;DHT22;26535;48.788;9.214;2023-03-21T20:09:11;13.70;93.00
40816;DHT22;26535;48.788;9.214;2023-03-21T20:11:37;13.70;93.00
40816;DHT22;26535;48.788;9.214;2023-03-21T20:14:03;13.60;93.00
40816;DHT22;26535;48.788;9.214;2023-03-21T20:16:30;13.60;93.00
40816;DHT22;26535;48.788;9.214;2023-03-21T20:18:58;13.60;93.20
40816;DHT22;26535;48.788;9.214;2023-03-21T20:21:24;13.50;93.20
40816;DHT22;26535;48.788;9.214;2023-03-21T20:23:52;13.50;93.20
40816;DHT22;26535;48.788;9.214;2023-03-21T20:26:19;13.40;93.30
40816;DHT22;26535;48.788;9.214;2023-03-21T20:28:45;13.40;93.30
40816;DHT22;26535;48.788;9.214;2023-03-21T20:31:14;13.30;93.30
40816;DHT22;26535;48.788;9.214;2023-03-21T20:33:40;13.30;93.30
40816;DHT22;26535;48.788;9.214;2023-03-21T20:36:07;13.20;93.20
40816;DHT22;26535;48.788;9.214;2023-03-21T20:38:34;13.20;93.50
40816;DHT22;26535;48.788;9.214;2023-03-21T20:41:02;13.20;93.60
40816;DHT22;26535;48.788;9.214;2023-03-21T20:43:29;13.20;93.80
40816;DHT22;26535;48.788;9.214;2023-03-21T20:46:03;13.20;94.00
40816;DHT22;26535;48.788;9.214;2023-03-21T20:48:29;13.10;94.20
40816;DHT22;26535;48.788;9.214;2023-03-21T20:51:02;13.10;94.20
40816;DHT22;26535;48.788;9.214;2023-03-21T20:53:29;13.10;94.60
40816;DHT22;26535;48.788;9.214;2023-03-21T20:55:56;13.10;94.50
40816;DHT22;26535;48.788;9.214;2023-03-21T20:58:28;13.10;94.40
40816;DHT22;26535;48.788;9.214;2023-03-21T21:00:57;13.10;94.20
40816;DHT22;26535;48.788;9.214;2023-03-21T21:03:25;13.10;94.30
40816;DHT22;26535;48.788;9.214;2023-03-21T21:05:50;13.00;94.40
40816;DHT22;26535;48.788;9.214;2023-03-21T21:08:16;13.00;94.60
40816;DHT22;26535;48.788;9.214;2023-03-21T21:10:44;13.00;94.70
40816;DHT22;26535;48.788;9.214;2023-03-21T21:13:15;13.00;94.80
40816;DHT22;26535;48.788;9.214;2023-03-21T21:15:42;13.00;94.70
40816;DHT22;26535;48.788;9.214;2023-03-21T21:18:10;13.00;94.70
40816;DHT22;26535;48.788;9.214;2023-03-21T21:20:36;12.90;94.70
40816;DHT22;26535;48.788;9.214;2023-03-21T21:23:03;13.00;94.80
40816;DHT22;26535;48.788;9.214;2023-03-21T21:25:33;13.00;94.80
40816;DHT22;26535;48.788;9.214;2023-03-21T21:27:59;12.90;94.80
40816;DHT22;26535;48.788;9.214;2023-03-21T21:30:26;12.90;94.90
40816;DHT22;26535;48.788;9.214;2023-03-21T21:32:54;12.80;95.00
40816;DHT22;26535;48.788;9.214;2023-03-21T21:35:20;12.80;95.10
40816;DHT22;26535;48.788;9.214;2023-03-21T21:37:47;12.80;95.00
40816;DHT22;26535;48.788;9.214;2023-03-21T21:40:13;12.80;95.10
40816;DHT22;26535;48.788;9.214;2023-03-21T21:42:45;12.80;95.30
40816;DHT22;26535;48.788;9.214;2023-03-21T21:45:12;12.80;95.30
40816;DHT22;26535;48.788;9.214;2023-03-21T21:47:38;12.80;95.30
40816;DHT22;26535;48.788;9.214;2023-03-21T21:50:04;12.80;95.40
40816;DHT22;26535;48.788;9.214;2023-03-21T21:52:30;12.80;95.60
40816;DHT22;26535;48.788;9.214;2023-03-21T21:54:56;12.80;95.70
40816;DHT22;26535;48.788;9.214;2023-03-21T21:57:22;12.70;95.70
40816;DHT22;26535;48.788;9.214;2023-03-21T21:59:48;12.70;95.70
40816;DHT22;26535;48.788;9.214;2023-03-21T22:02:19;12.70;95.80
40816;DHT22;26535;48.788;9.214;2023-03-21T22:04:57;12.70;95.90
40816;DHT22;26535;48.788;9.214;2023-03-21T22:07:25;12.70;96.00